createdAt,value
2017-12-08T00:02:10.530Z,76.29
2017-12-08T00:04:38.518Z,76.29
2017-12-08T00:07:06.174Z,76.62
2017-12-08T00:09:33.759Z,76.80
2017-12-08T00:12:01.387Z,76.50
2017-12-08T00:14:28.955Z,76.31
2017-12-08T00:16:56.545Z,76.42
2017-12-08T00:19:24.172Z,76.53
2017-12-08T00:21:51.827Z,76.57
2017-12-08T00:24:19.496Z,76.51
2017-12-08T00:26:47.160Z,76.69
2017-12-08T00:29:14.836Z,76.76
2017-12-08T00:31:42.896Z,76.81
2017-12-08T00:34:10.472Z,76.77
2017-12-08T00:36:38.050Z,76.96
2017-12-08T00:39:05.683Z,76.93
2017-12-08T00:41:33.267Z,77.04
2017-12-08T00:44:00.904Z,77.07
2017-12-08T00:46:28.577Z,77.00
2017-12-08T00:48:56.241Z,76.84
2017-12-08T00:51:23.899Z,76.69
2017-12-08T00:53:51.471Z,76.76
2017-12-08T00:56:19.048Z,76.85
2017-12-08T00:58:46.684Z,76.72
2017-12-08T01:01:14.351Z,76.89
2017-12-08T01:03:42.018Z,77.18
2017-12-08T01:06:09.594Z,77.15
2017-12-08T01:08:37.183Z,76.65
2017-12-08T01:11:04.779Z,76.55
2017-12-08T01:13:32.358Z,76.85
2017-12-08T01:15:59.939Z,76.94
2017-12-08T01:18:27.620Z,77.02
2017-12-08T01:20:55.255Z,76.89
2017-12-08T01:23:22.919Z,77.19
2017-12-08T01:25:50.580Z,77.30
2017-12-08T01:28:18.173Z,77.18
2017-12-08T01:30:45.752Z,76.80
2017-12-08T01:33:13.367Z,76.75
2017-12-08T01:35:41.032Z,76.69
2017-12-08T01:38:08.615Z,76.77
2017-12-08T01:40:36.186Z,76.65
2017-12-08T01:43:03.783Z,76.42
2017-12-08T01:45:31.352Z,76.49
2017-12-08T01:47:59.128Z,76.55
2017-12-08T01:50:26.706Z,76.68
2017-12-08T01:52:54.278Z,76.75
2017-12-08T01:55:21.898Z,76.29
2017-12-08T01:57:49.480Z,76.14
2017-12-08T02:00:17.064Z,76.12
2017-12-08T02:02:44.702Z,76.01
2017-12-08T02:05:12.275Z,76.02
2017-12-08T02:07:39.846Z,76.08
2017-12-08T02:10:07.743Z,76.00
2017-12-08T02:12:35.380Z,76.09
2017-12-08T02:15:02.968Z,75.86
2017-12-08T02:17:30.584Z,75.85
2017-12-08T02:19:58.166Z,75.82
2017-12-08T02:22:25.823Z,75.54
2017-12-08T02:24:53.487Z,75.84
2017-12-08T02:27:21.051Z,75.58
2017-12-08T02:29:48.634Z,75.75
2017-12-08T02:32:16.279Z,76.10
2017-12-08T02:34:43.936Z,76.44
2017-12-08T02:37:11.508Z,76.46
2017-12-08T02:39:39.159Z,76.32
2017-12-08T02:42:06.742Z,76.24
2017-12-08T02:44:34.315Z,76.40
2017-12-08T02:47:01.943Z,76.54
2017-12-08T02:49:29.615Z,76.82
2017-12-08T02:51:57.273Z,76.84
2017-12-08T02:54:24.852Z,76.87
2017-12-08T02:56:52.503Z,76.93
2017-12-08T02:59:20.076Z,76.93
2017-12-08T03:01:47.659Z,76.93
2017-12-08T03:04:15.635Z,76.87
2017-12-08T03:06:43.268Z,76.80
2017-12-08T03:09:10.927Z,76.83
2017-12-08T03:11:38.587Z,76.87
2017-12-08T03:14:06.164Z,76.74
2017-12-08T03:16:33.799Z,76.72
2017-12-08T03:19:01.371Z,76.91
2017-12-08T03:21:29.046Z,76.88
2017-12-08T03:23:56.628Z,76.71
2017-12-08T03:26:24.268Z,76.62
2017-12-08T03:28:51.932Z,76.33
2017-12-08T03:31:19.598Z,76.25
2017-12-08T03:33:47.175Z,76.21
2017-12-08T03:36:14.742Z,76.40
2017-12-08T03:38:42.384Z,76.56
2017-12-08T03:41:10.043Z,76.28
2017-12-08T03:43:37.703Z,76.30
2017-12-08T03:46:05.356Z,76.20
2017-12-08T03:48:33.036Z,76.14
2017-12-08T03:51:00.602Z,76.16
2017-12-08T03:53:28.189Z,76.19
2017-12-08T03:55:55.823Z,76.14
2017-12-08T03:58:23.484Z,76.08
2017-12-08T04:00:51.055Z,75.79
2017-12-08T04:03:18.706Z,75.81
2017-12-08T04:05:46.283Z,75.78
2017-12-08T04:08:13.873Z,75.77
2017-12-08T04:10:41.507Z,75.38
2017-12-08T04:13:09.167Z,75.18
2017-12-08T04:15:36.739Z,75.65
2017-12-08T04:18:04.408Z,76.03
2017-12-08T04:20:31.976Z,76.42
2017-12-08T04:22:59.616Z,77.12
2017-12-08T04:25:27.282Z,77.21
2017-12-08T04:27:54.944Z,77.43
2017-12-08T04:30:22.612Z,77.49
2017-12-08T04:32:50.203Z,77.73
2017-12-08T04:35:17.826Z,77.82
2017-12-08T04:37:45.408Z,77.53
2017-12-08T04:40:12.991Z,77.25
2017-12-08T04:42:40.624Z,77.25
2017-12-08T04:45:08.289Z,77.37
2017-12-08T04:47:35.868Z,77.65
2017-12-08T04:50:03.512Z,77.42
2017-12-08T04:52:31.171Z,77.50
2017-12-08T04:54:58.760Z,77.48
2017-12-08T04:57:26.331Z,77.45
2017-12-08T04:59:53.971Z,77.20
2017-12-08T05:02:21.548Z,77.08
2017-12-08T05:04:49.175Z,76.87
2017-12-08T05:07:16.744Z,76.88
2017-12-08T05:09:44.324Z,76.79
2017-12-08T05:12:11.971Z,76.50
2017-12-08T05:14:39.548Z,76.11
2017-12-08T05:17:07.116Z,76.15
2017-12-08T05:19:34.768Z,76.07
2017-12-08T05:22:02.398Z,76.34
2017-12-08T05:24:30.079Z,76.25
2017-12-08T05:26:57.752Z,75.83
2017-12-08T05:29:25.327Z,76.11
2017-12-08T05:31:52.906Z,76.29
2017-12-08T05:34:20.536Z,76.14
2017-12-08T05:36:48.121Z,75.94
2017-12-08T05:39:15.760Z,76.50
2017-12-08T05:41:43.424Z,76.24
2017-12-08T05:44:11.087Z,76.44
2017-12-08T05:46:38.671Z,76.42
2017-12-08T05:49:06.235Z,76.55
2017-12-08T05:51:33.874Z,76.76
2017-12-08T05:54:01.537Z,76.83
2017-12-08T05:56:29.203Z,76.64
2017-12-08T05:58:56.868Z,77.00
2017-12-08T06:01:24.447Z,76.84
2017-12-08T06:03:52.091Z,76.96
2017-12-08T06:06:19.761Z,76.98
2017-12-08T06:08:47.336Z,77.06
2017-12-08T06:11:14.984Z,77.06
2017-12-08T06:13:42.551Z,77.32
2017-12-08T06:16:10.131Z,77.23
2017-12-08T06:18:37.750Z,77.34
2017-12-08T06:21:05.322Z,77.09
2017-12-08T06:23:32.996Z,77.12
2017-12-08T06:26:00.655Z,77.24
2017-12-08T06:28:28.228Z,77.12
2017-12-08T06:30:55.893Z,77.20
2017-12-08T06:33:23.463Z,77.47
2017-12-08T06:35:51.042Z,77.64
2017-12-08T06:38:19.489Z,77.50
2017-12-08T06:40:47.151Z,77.37
2017-12-08T06:43:14.728Z,77.14
2017-12-08T06:45:42.379Z,77.23
2017-12-08T06:48:10.035Z,77.25
2017-12-08T06:50:37.603Z,77.63
2017-12-08T06:53:05.265Z,78.05
2017-12-08T06:55:32.935Z,78.06
2017-12-08T06:58:00.516Z,77.97
2017-12-08T07:00:28.091Z,77.90
2017-12-08T07:02:55.723Z,77.75
2017-12-08T07:05:23.432Z,77.80
2017-12-08T07:07:51.041Z,77.68
2017-12-08T07:10:18.664Z,77.50
2017-12-08T07:12:46.248Z,77.49
2017-12-08T07:15:13.821Z,77.63
2017-12-08T07:17:41.398Z,77.67
2017-12-08T07:20:09.055Z,77.74
2017-12-08T07:22:36.645Z,77.85
2017-12-08T07:25:04.215Z,77.81
2017-12-08T07:27:31.828Z,77.89
2017-12-08T07:29:59.515Z,77.91
2017-12-08T07:32:27.172Z,77.60
2017-12-08T07:34:54.743Z,77.30
2017-12-08T07:37:22.399Z,77.56
2017-12-08T07:39:49.984Z,77.65
2017-12-08T07:42:17.630Z,77.61
2017-12-08T07:44:45.208Z,77.24
2017-12-08T07:47:12.789Z,77.27
2017-12-08T07:49:40.408Z,77.54
2017-12-08T07:52:07.985Z,77.52
2017-12-08T07:54:35.563Z,77.52
2017-12-08T07:57:03.196Z,77.45
2017-12-08T07:59:30.860Z,77.35
2017-12-08T08:01:58.435Z,77.30
2017-12-08T08:04:26.020Z,77.37
2017-12-08T08:06:53.644Z,77.85
2017-12-08T08:09:21.224Z,78.59
2017-12-08T08:11:48.867Z,78.60
2017-12-08T08:14:16.536Z,78.39
2017-12-08T08:16:44.103Z,78.40
2017-12-08T08:19:11.687Z,78.12
2017-12-08T08:21:39.320Z,78.09
2017-12-08T08:24:06.985Z,78.40
2017-12-08T08:26:34.655Z,78.18
2017-12-08T08:29:02.317Z,78.12
2017-12-08T08:31:29.974Z,78.12
2017-12-08T08:33:57.572Z,78.21
2017-12-08T08:36:25.144Z,78.30
2017-12-08T08:38:52.712Z,78.26
2017-12-08T08:41:20.295Z,78.25
2017-12-08T08:43:47.887Z,78.12
2017-12-08T08:46:15.548Z,78.01
2017-12-08T08:48:43.219Z,78.15
2017-12-08T08:51:10.804Z,78.32
2017-12-08T08:53:38.443Z,78.36
2017-12-08T08:56:06.176Z,78.37
2017-12-08T08:58:33.756Z,78.26
2017-12-08T09:01:01.339Z,78.20
2017-12-08T09:03:28.916Z,78.09
2017-12-08T09:05:56.561Z,78.03
2017-12-08T09:08:24.220Z,77.80
2017-12-08T09:10:51.805Z,77.78
2017-12-08T09:13:19.377Z,77.87
2017-12-08T09:15:47.003Z,77.97
2017-12-08T09:18:14.570Z,77.97
2017-12-08T09:20:42.155Z,77.86
2017-12-08T09:23:09.728Z,77.78
2017-12-08T09:25:37.322Z,77.70
2017-12-08T09:28:04.896Z,77.71
2017-12-08T09:30:32.566Z,77.71
2017-12-08T09:33:00.250Z,77.49
2017-12-08T09:35:27.911Z,77.56
2017-12-08T09:37:55.604Z,77.48
2017-12-08T09:40:23.192Z,77.46
2017-12-08T09:42:50.768Z,77.40
2017-12-08T09:45:18.469Z,77.49
2017-12-08T09:47:46.047Z,77.29
2017-12-08T09:50:13.684Z,77.31
2017-12-08T09:52:41.264Z,77.32
2017-12-08T09:55:08.906Z,77.12
2017-12-08T09:57:36.497Z,76.99
2017-12-08T10:00:04.068Z,76.87
2017-12-08T10:02:31.699Z,76.79
2017-12-08T10:04:59.271Z,76.75
2017-12-08T10:07:26.857Z,77.10
2017-12-08T10:09:54.485Z,77.29
2017-12-08T10:12:22.143Z,77.26
2017-12-08T10:14:49.711Z,77.33
2017-12-08T10:17:17.292Z,77.29
2017-12-08T10:19:44.931Z,77.31
2017-12-08T10:22:12.511Z,77.46
2017-12-08T10:24:40.081Z,77.35
2017-12-08T10:27:07.773Z,77.22
2017-12-08T10:29:35.383Z,77.15
2017-12-08T10:32:03.047Z,77.17
2017-12-08T10:34:30.611Z,77.20
2017-12-08T10:36:58.203Z,77.22
2017-12-08T10:39:25.838Z,77.32
2017-12-08T10:41:53.503Z,77.43
2017-12-08T10:44:21.083Z,77.36
2017-12-08T10:46:48.655Z,77.28
2017-12-08T10:49:16.287Z,77.42
2017-12-08T10:51:43.851Z,77.59
2017-12-08T10:54:11.436Z,77.49
2017-12-08T10:56:39.012Z,77.38
2017-12-08T10:59:06.595Z,77.44
2017-12-08T11:01:34.201Z,77.45
2017-12-08T11:04:01.810Z,77.42
2017-12-08T11:06:29.379Z,77.31
2017-12-08T11:08:56.977Z,77.35
2017-12-08T11:11:24.543Z,77.15
2017-12-08T11:13:52.129Z,77.09
2017-12-08T11:16:19.767Z,77.05
2017-12-08T11:18:47.449Z,77.13
2017-12-08T11:21:15.104Z,76.90
2017-12-08T11:23:42.689Z,76.87
2017-12-08T11:26:10.265Z,76.65
2017-12-08T11:28:37.887Z,76.86
2017-12-08T11:31:05.558Z,76.74
2017-12-08T11:33:33.212Z,76.71
2017-12-08T11:36:00.879Z,76.71
2017-12-08T11:38:28.539Z,76.71
2017-12-08T11:40:56.228Z,76.78
2017-12-08T11:43:23.796Z,76.81
2017-12-08T11:45:51.431Z,76.71
2017-12-08T11:48:18.995Z,76.69
2017-12-08T11:50:46.576Z,76.74
2017-12-08T11:53:14.224Z,76.69
2017-12-08T11:55:41.807Z,76.65
2017-12-08T11:58:09.445Z,76.29
2017-12-08T12:00:37.023Z,76.14
2017-12-08T12:03:04.596Z,76.11
2017-12-08T12:05:32.187Z,76.09
2017-12-08T12:07:59.764Z,76.37
2017-12-08T12:10:27.456Z,76.77
2017-12-08T12:15:28.299Z,77.16
2017-12-08T12:17:55.868Z,76.73
2017-12-08T12:20:23.442Z,76.84
2017-12-08T12:22:51.010Z,76.87
2017-12-08T12:25:18.659Z,76.99
2017-12-08T12:27:46.231Z,77.16
2017-12-08T12:30:13.883Z,77.06
2017-12-08T12:32:41.549Z,77.10
2017-12-08T12:35:09.135Z,77.22
2017-12-08T12:37:36.771Z,77.24
2017-12-08T12:40:04.451Z,77.17
2017-12-08T12:42:32.022Z,77.22
2017-12-08T12:44:59.664Z,77.08
2017-12-08T12:47:27.332Z,77.03
2017-12-08T12:49:54.983Z,76.92
2017-12-08T12:52:22.607Z,76.95
2017-12-08T12:54:50.215Z,76.84
2017-12-08T12:57:17.885Z,76.93
2017-12-08T12:59:45.475Z,76.92
2017-12-08T13:02:13.107Z,76.97
2017-12-08T13:04:40.680Z,77.07
2017-12-08T13:07:08.341Z,77.27
2017-12-08T13:09:36.006Z,77.19
2017-12-08T13:12:03.593Z,77.31
2017-12-08T13:14:31.169Z,77.11
2017-12-08T13:16:58.785Z,76.96
2017-12-08T13:19:26.370Z,77.03
2017-12-08T13:21:53.964Z,76.87
2017-12-08T13:24:21.535Z,76.89
2017-12-08T13:26:49.114Z,76.86
2017-12-08T13:29:16.688Z,76.72
2017-12-08T13:31:44.263Z,76.87
2017-12-08T13:34:11.921Z,76.94
2017-12-08T13:36:39.579Z,76.82
2017-12-08T13:39:07.244Z,76.54
2017-12-08T13:41:34.840Z,76.39
2017-12-08T13:44:02.421Z,76.62
2017-12-08T13:46:30.000Z,76.65
2017-12-08T13:48:57.586Z,76.90
2017-12-08T13:51:25.159Z,77.16
2017-12-08T13:54:04.483Z,77.21
2017-12-08T13:56:43.827Z,77.19
2017-12-08T13:59:11.491Z,77.26
2017-12-08T14:01:39.068Z,77.40
2017-12-08T14:04:06.719Z,77.53
2017-12-08T14:06:34.383Z,77.68
2017-12-08T14:09:01.972Z,77.67
2017-12-08T14:11:29.539Z,77.78
2017-12-08T14:13:57.123Z,77.77
2017-12-08T14:16:24.696Z,77.88
2017-12-08T14:18:52.279Z,77.73
2017-12-08T14:21:19.968Z,77.61
2017-12-08T14:23:47.623Z,77.55
2017-12-08T14:26:15.197Z,77.53
2017-12-08T14:28:42.843Z,77.52
2017-12-08T14:31:10.507Z,77.50
2017-12-08T14:33:38.083Z,77.65
2017-12-08T14:36:05.663Z,77.74
2017-12-08T14:38:33.306Z,77.82
2017-12-08T14:41:00.965Z,77.65
2017-12-08T14:43:28.626Z,77.82
2017-12-08T14:45:56.208Z,77.82
2017-12-08T14:48:23.774Z,77.76
2017-12-08T14:50:51.355Z,77.74
2017-12-08T14:53:18.928Z,88.10
2017-12-08T14:55:46.544Z,82.76
2017-12-08T14:58:14.111Z,85.80
2017-12-08T15:00:41.696Z,87.37
2017-12-08T15:03:09.329Z,88.37
2017-12-08T15:05:36.912Z,88.81
2017-12-08T15:08:04.494Z,89.08
2017-12-08T15:10:32.112Z,89.37
2017-12-08T15:12:59.783Z,89.27
2017-12-08T15:15:27.376Z,89.28
2017-12-08T15:17:54.954Z,89.37
2017-12-08T15:20:22.536Z,89.53
2017-12-08T15:22:50.108Z,89.49
2017-12-08T15:25:17.712Z,89.36
2017-12-08T15:27:45.352Z,89.62
2017-12-08T15:30:12.923Z,89.52
2017-12-08T15:32:40.508Z,89.57
2017-12-08T15:35:08.086Z,89.61
2017-12-08T15:37:35.711Z,89.61
2017-12-08T15:40:03.360Z,89.63
2017-12-08T15:42:30.943Z,89.71
2017-12-08T15:44:58.530Z,89.72
2017-12-08T15:47:26.143Z,89.10
2017-12-08T15:49:53.715Z,89.38
2017-12-08T15:52:21.308Z,89.50
2017-12-08T15:54:48.887Z,89.49
2017-12-08T15:57:16.479Z,89.01
2017-12-08T15:59:44.157Z,89.28
2017-12-08T16:02:11.872Z,89.10
2017-12-08T16:04:41.106Z,89.26
2017-12-08T16:07:08.788Z,89.02
2017-12-08T16:09:36.447Z,88.75
2017-12-08T16:12:04.124Z,87.94
2017-12-08T16:14:31.780Z,88.39
2017-12-08T16:16:59.364Z,88.43
2017-12-08T16:19:27.004Z,88.62
2017-12-08T16:21:54.664Z,88.75
2017-12-08T16:24:22.343Z,88.42
2017-12-08T16:26:49.996Z,88.34
2017-12-08T16:29:17.659Z,88.81
2017-12-08T16:31:45.239Z,88.91
2017-12-08T16:34:12.893Z,88.79
2017-12-08T16:36:40.548Z,88.52
2017-12-08T16:39:08.128Z,88.34
2017-12-08T16:41:35.777Z,88.76
2017-12-08T16:44:03.448Z,88.60
2017-12-08T16:46:31.024Z,87.77
2017-12-08T16:48:58.607Z,88.25
2017-12-08T16:51:26.184Z,88.59
2017-12-08T16:53:53.768Z,88.87
2017-12-08T16:56:21.341Z,88.71
2017-12-08T16:58:49.012Z,88.45
2017-12-08T17:01:16.675Z,88.41
2017-12-08T17:03:44.264Z,88.48
2017-12-08T17:06:11.835Z,88.87
2017-12-08T17:08:39.524Z,89.18
2017-12-08T17:11:07.128Z,89.18
2017-12-08T17:13:34.791Z,89.23
2017-12-08T17:16:02.375Z,89.32
2017-12-08T17:18:29.983Z,89.35
2017-12-08T17:20:57.620Z,89.04
2017-12-08T17:23:25.213Z,89.20
2017-12-08T17:25:52.851Z,89.17
2017-12-08T17:28:20.499Z,89.13
2017-12-08T17:30:48.127Z,88.94
2017-12-08T17:33:15.800Z,88.95
2017-12-08T17:35:43.396Z,88.67
2017-12-08T17:38:10.988Z,88.79
2017-12-08T17:40:38.592Z,88.59
2017-12-08T17:43:06.244Z,88.67
2017-12-08T17:45:33.845Z,88.63
2017-12-08T17:48:01.445Z,88.66
2017-12-08T17:50:29.057Z,88.92
2017-12-08T17:52:56.648Z,88.94
2017-12-08T17:55:24.250Z,89.16
2017-12-08T17:57:51.915Z,89.35
2017-12-08T18:00:19.507Z,89.52
2017-12-08T18:02:47.088Z,89.43
2017-12-08T18:05:14.703Z,89.26
2017-12-08T18:07:42.371Z,89.25
2017-12-08T18:10:09.967Z,89.19
2017-12-08T18:12:37.622Z,89.07
2017-12-08T18:15:05.281Z,89.05
2017-12-08T18:17:32.903Z,88.96
2017-12-08T18:20:00.507Z,89.01
2017-12-08T18:22:28.167Z,88.88
2017-12-08T18:24:55.748Z,88.72
2017-12-08T18:27:23.337Z,88.79
2017-12-08T18:29:50.940Z,89.04
2017-12-08T18:32:18.600Z,88.83
2017-12-08T18:34:46.182Z,88.41
2017-12-08T18:37:13.777Z,88.51
2017-12-08T18:39:41.369Z,88.63
2017-12-08T18:42:09.048Z,88.37
2017-12-08T18:44:36.719Z,87.95
2017-12-08T18:47:04.317Z,88.00
2017-12-08T18:49:31.908Z,88.17
2017-12-08T18:51:59.508Z,88.28
2017-12-08T18:54:27.083Z,88.28
2017-12-08T18:56:54.712Z,88.31
2017-12-08T18:59:22.314Z,87.99
2017-12-08T19:01:49.905Z,87.80
2017-12-08T19:04:17.515Z,87.90
2017-12-08T19:06:45.113Z,88.01
2017-12-08T19:09:12.705Z,88.34
2017-12-08T19:11:40.399Z,88.32
2017-12-08T19:14:07.976Z,88.15
2017-12-08T19:16:35.619Z,88.22
2017-12-08T19:19:03.208Z,88.73
2017-12-08T19:21:30.858Z,88.89
2017-12-08T19:23:58.649Z,89.16
2017-12-08T19:26:26.284Z,89.03
2017-12-08T19:28:53.952Z,89.08
2017-12-08T19:31:21.619Z,89.18
2017-12-08T19:33:49.210Z,89.04
2017-12-08T19:36:16.801Z,88.94
2017-12-08T19:38:44.506Z,88.95
2017-12-08T19:41:12.086Z,89.04
2017-12-08T19:43:39.825Z,89.20
2017-12-08T19:46:07.495Z,89.27
2017-12-08T19:48:35.257Z,89.29
2017-12-08T19:51:02.928Z,89.73
2017-12-08T19:53:30.508Z,89.76
2017-12-08T19:55:58.271Z,89.59
2017-12-08T19:58:25.863Z,89.42
2017-12-08T20:00:53.459Z,89.64
2017-12-08T20:03:21.043Z,89.71
2017-12-08T20:05:48.628Z,89.41
2017-12-08T20:08:16.218Z,89.46
2017-12-08T20:10:43.803Z,89.44
2017-12-08T20:13:11.384Z,89.54
2017-12-08T20:15:38.977Z,89.18
2017-12-08T20:18:06.612Z,89.36
2017-12-08T20:20:34.203Z,88.99
2017-12-08T20:23:01.791Z,89.47
2017-12-08T20:25:29.401Z,89.60
2017-12-08T20:27:57.000Z,89.68
2017-12-08T20:30:24.617Z,89.44
2017-12-08T20:32:52.290Z,89.35
2017-12-08T20:35:19.872Z,89.17
2017-12-08T20:37:47.594Z,89.21
2017-12-08T20:40:15.176Z,89.36
2017-12-08T20:42:42.846Z,89.04
2017-12-08T20:45:10.512Z,89.11
2017-12-08T20:47:38.163Z,89.13
2017-12-08T20:50:05.828Z,89.24
2017-12-08T20:52:33.419Z,88.91
2017-12-08T20:55:01.059Z,89.16
2017-12-08T20:57:28.660Z,89.40
2017-12-08T20:59:56.239Z,89.67
2017-12-08T21:02:23.944Z,89.64
2017-12-08T21:04:51.520Z,89.54
2017-12-08T21:07:19.173Z,89.46
2017-12-08T21:09:46.755Z,89.23
2017-12-08T21:12:14.387Z,89.24
2017-12-08T21:14:41.960Z,89.22
2017-12-08T21:17:09.536Z,89.16
2017-12-08T21:19:37.136Z,89.27
2017-12-08T21:22:04.711Z,89.34
2017-12-08T21:24:32.287Z,89.37
2017-12-08T21:26:59.859Z,88.99
2017-12-08T21:29:27.447Z,89.17
2017-12-08T21:31:55.089Z,89.16
2017-12-08T21:34:22.757Z,89.02
2017-12-08T21:36:50.416Z,89.04
2017-12-08T21:39:18.006Z,89.11
2017-12-08T21:41:45.596Z,89.23
2017-12-08T21:44:13.209Z,89.42
2017-12-08T21:46:40.870Z,89.49
2017-12-08T21:49:08.459Z,89.47
2017-12-08T21:51:36.097Z,89.62
2017-12-08T21:54:03.687Z,89.51
2017-12-08T21:56:31.420Z,89.57
2017-12-08T21:58:59.093Z,89.68
2017-12-08T22:01:26.684Z,89.64
2017-12-08T22:03:54.317Z,89.65
2017-12-08T22:06:21.899Z,89.59
2017-12-08T22:08:49.489Z,89.44
2017-12-08T22:11:17.079Z,89.53
2017-12-08T22:13:44.754Z,89.82
2017-12-08T22:16:12.424Z,89.69
2017-12-08T22:18:40.049Z,89.54
2017-12-08T22:21:07.757Z,89.39
2017-12-08T22:23:35.344Z,89.25
2017-12-08T22:26:02.967Z,88.98
2017-12-08T22:28:30.620Z,88.96
2017-12-08T22:30:58.182Z,88.95
2017-12-08T22:33:25.774Z,88.79
2017-12-08T22:35:53.376Z,89.10
2017-12-08T22:38:20.964Z,88.98
2017-12-08T22:40:48.559Z,89.35
2017-12-08T22:43:16.147Z,89.09
2017-12-08T22:45:43.750Z,89.11
2017-12-08T22:48:11.331Z,89.01
2017-12-08T22:50:38.925Z,89.02
2017-12-08T22:53:06.507Z,88.98
2017-12-08T22:55:34.116Z,88.90
2017-12-08T22:58:01.703Z,88.77
2017-12-08T23:00:29.294Z,88.79
2017-12-08T23:02:56.899Z,88.91
2017-12-08T23:05:24.490Z,89.12
2017-12-08T23:07:52.088Z,88.98
2017-12-08T23:10:19.685Z,89.03
2017-12-08T23:12:47.287Z,88.50
2017-12-08T23:15:14.897Z,88.95
2017-12-08T23:17:42.500Z,89.18
2017-12-08T23:20:10.093Z,89.23
2017-12-08T23:22:37.697Z,89.08
2017-12-08T23:25:05.280Z,88.82
2017-12-08T23:27:32.871Z,88.92
2017-12-08T23:30:00.463Z,89.03
2017-12-08T23:32:28.061Z,88.86
2017-12-08T23:34:55.643Z,89.10
2017-12-08T23:37:23.284Z,89.18
2017-12-08T23:39:50.866Z,89.37
2017-12-08T23:42:18.517Z,89.14
2017-12-08T23:44:46.095Z,88.82
2017-12-08T23:47:13.717Z,88.57
2017-12-08T23:49:41.400Z,88.13
2017-12-08T23:52:08.996Z,87.75
2017-12-08T23:54:36.598Z,87.71
2017-12-08T23:57:04.288Z,87.73
2017-12-08T23:59:31.948Z,87.57
